Hlavní strana
METAR-TAF:

METAR-TAF

Letiště :

Rabat, Maroko

zeměpisná šířka: 34-03N, zeměpisná délka: 006-46W, výška: 84 m

Aktuální stav počasí

Zpráva byla vytvořena před 33 minutami, v 21:30 UTC
Západojihozápadní vítr 6 kt
Teplota 17°C
Vlhkost vzduchu 82%
Tlak 1017 hPa
Viditelnost: 8000 m
Polojasno ve výšce 1300 ft
Oblačno až skoro zataženo ve výšce 1600 ft

METAR: GMME 252130Z 25006KT 8000 SCT013 BKN016 17/14 Q1017 NOSIG

Čas: 23:03 (22:03 UTC)

Předpověď počasí

Zpráva byla vytvořena před 5 hodinami a 3 minutami, v 17:00 UTC
Předpověď platná od 25 v 18 UTC do 26 v 24 UTC
Jihozápadní vítr 8 kt
Viditelnost: 8000 m
Polojasno ve výšce 1300 ft
Polojasno ve výšce 2000 ft
Dočasný
od 25 v 18 UTC do 25 v 24 UTC
Západní vítr 14 kt
Viditelnost: 4000 m
Polojasno ve výšce 1000 ft
Oblačno až skoro zataženo ve výšce 1500 ft
Oblačno až skoro zataženo ve výšce 7000 ft
déšť

TAF: GMME 251700Z 2518/2624 22008KT 8000 SCT013 SCT020 TEMPO 2518/2524 28014KT 4000 RA SCT010 BKN015 BKN070

Stav a předpovědi počasí z více než 4 000 letišť (zprávy METAR a TAF).

Červené a žluté tečky na mapě představují dostupné meteorologické stanice.

Když kurzor umístíte na tečku, zobrazí se název stanice.

Pak kliknutím zobrazíte stav a předpověď počasí.

Chcete-li změnit mapu, kliknutím na zelené tlačítko se znaménkem +mapu přiblížíte, kliknutím na zelené tlačítko se znaménkem – mapu oddálíte a kliknutím na zelené šipky přejdete na sousední mapy.


METAR-TAF: